sensor_id;sensor_type;location;lat;lon;timestamp;P1;P2;P0
61804;PMS7003;47725;47.912;7.356;2022-09-24T00:01:35;2.81;2.81;
61804;PMS7003;47725;47.912;7.356;2022-09-24T00:05:38;2.81;2.81;
61804;PMS7003;47725;47.912;7.356;2022-09-24T00:09:35;2.81;2.81;
61804;PMS7003;47725;47.912;7.356;2022-09-24T00:13:35;1.87;1.87;
61804;PMS7003;47725;47.912;7.356;2022-09-24T00:17:35;1.87;1.87;
61804;PMS7003;47725;47.912;7.356;2022-09-24T00:21:35;4.67;3.74;
61804;PMS7003;47725;47.912;7.356;2022-09-24T00:25:44;4.67;3.74;
61804;PMS7003;47725;47.912;7.356;2022-09-24T00:29:35;4.67;3.74;
61804;PMS7003;47725;47.912;7.356;2022-09-24T00:33:35;3.73;2.79;
61804;PMS7003;47725;47.912;7.356;2022-09-24T00:37:35;3.73;2.79;
61804;PMS7003;47725;47.912;7.356;2022-09-24T00:41:35;7.44;3.72;
61804;PMS7003;47725;47.912;7.356;2022-09-24T00:45:35;7.44;3.72;
61804;PMS7003;47725;47.912;7.356;2022-09-24T00:49:35;7.44;3.72;
61804;PMS7003;47725;47.912;7.356;2022-09-24T00:53:35;5.58;3.72;
61804;PMS7003;47725;47.912;7.356;2022-09-24T00:57:35;5.58;3.72;
61804;PMS7003;47725;47.912;7.356;2022-09-24T01:01:35;3.69;3.69;
61804;PMS7003;47725;47.912;7.356;2022-09-24T01:05:35;3.69;3.69;
61804;PMS7003;47725;47.912;7.356;2022-09-24T01:09:35;3.69;3.69;
61804;PMS7003;47725;47.912;7.356;2022-09-24T01:13:37;2.75;2.75;
61804;PMS7003;47725;47.912;7.356;2022-09-24T01:21:37;9.04;6.33;
61804;PMS7003;47725;47.912;7.356;2022-09-24T01:29:41;9.04;6.33;
61804;PMS7003;47725;47.912;7.356;2022-09-24T01:33:35;7.22;4.51;
61804;PMS7003;47725;47.912;7.356;2022-09-24T01:37:35;7.22;4.51;
61804;PMS7003;47725;47.912;7.356;2022-09-24T01:41:35;7.20;6.30;
61804;PMS7003;47725;47.912;7.356;2022-09-24T01:45:35;7.20;6.30;
61804;PMS7003;47725;47.912;7.356;2022-09-24T01:49:35;7.20;6.30;
61804;PMS7003;47725;47.912;7.356;2022-09-24T01:53:36;3.57;3.57;
61804;PMS7003;47725;47.912;7.356;2022-09-24T01:57:37;3.57;3.57;
61804;PMS7003;47725;47.912;7.356;2022-09-24T02:01:44;5.29;4.41;
61804;PMS7003;47725;47.912;7.356;2022-09-24T02:05:36;5.29;4.41;
61804;PMS7003;47725;47.912;7.356;2022-09-24T02:09:36;5.29;4.41;
61804;PMS7003;47725;47.912;7.356;2022-09-24T02:13:45;2.63;2.63;
61804;PMS7003;47725;47.912;7.356;2022-09-24T02:17:35;2.63;2.63;
61804;PMS7003;47725;47.912;7.356;2022-09-24T02:21:35;1.75;1.75;
61804;PMS7003;47725;47.912;7.356;2022-09-24T02:25:38;1.75;1.75;
61804;PMS7003;47725;47.912;7.356;2022-09-24T02:29:35;1.75;1.75;
61804;PMS7003;47725;47.912;7.356;2022-09-24T02:33:35;0.87;0.87;
61804;PMS7003;47725;47.912;7.356;2022-09-24T02:37:39;0.87;0.87;
61804;PMS7003;47725;47.912;7.356;2022-09-24T02:41:35;0.87;0.87;
61804;PMS7003;47725;47.912;7.356;2022-09-24T02:45:35;0.87;0.87;
61804;PMS7003;47725;47.912;7.356;2022-09-24T02:49:35;0.87;0.87;
61804;PMS7003;47725;47.912;7.356;2022-09-24T02:53:35;2.62;1.75;
61804;PMS7003;47725;47.912;7.356;2022-09-24T02:57:35;2.62;1.75;
61804;PMS7003;47725;47.912;7.356;2022-09-24T03:01:35;2.60;1.73;
61804;PMS7003;47725;47.912;7.356;2022-09-24T03:05:35;2.60;1.73;
61804;PMS7003;47725;47.912;7.356;2022-09-24T03:09:35;2.60;1.73;
61804;PMS7003;47725;47.912;7.356;2022-09-24T03:13:35;3.47;1.74;
61804;PMS7003;47725;47.912;7.356;2022-09-24T03:17:35;3.47;1.74;
61804;PMS7003;47725;47.912;7.356;2022-09-24T03:21:35;1.71;1.71;
61804;PMS7003;47725;47.912;7.356;2022-09-24T03:25:35;1.71;1.71;
61804;PMS7003;47725;47.912;7.356;2022-09-24T03:29:35;1.71;1.71;
61804;PMS7003;47725;47.912;7.356;2022-09-24T03:33:42;0.84;0.84;
61804;PMS7003;47725;47.912;7.356;2022-09-24T03:37:35;0.84;0.84;
61804;PMS7003;47725;47.912;7.356;2022-09-24T03:41:35;0.83;0.83;
61804;PMS7003;47725;47.912;7.356;2022-09-24T03:45:35;0.83;0.83;
61804;PMS7003;47725;47.912;7.356;2022-09-24T03:49:35;0.83;0.83;
61804;PMS7003;47725;47.912;7.356;2022-09-24T03:53:35;0.00;0.00;
61804;PMS7003;47725;47.912;7.356;2022-09-24T03:57:35;0.00;0.00;
61804;PMS7003;47725;47.912;7.356;2022-09-24T04:01:35;0.00;0.00;
61804;PMS7003;47725;47.912;7.356;2022-09-24T04:05:35;0.00;0.00;
61804;PMS7003;47725;47.912;7.356;2022-09-24T04:09:35;0.00;0.00;
61804;PMS7003;47725;47.912;7.356;2022-09-24T04:13:35;1.62;0.00;
61804;PMS7003;47725;47.912;7.356;2022-09-24T04:17:35;1.62;0.00;
61804;PMS7003;47725;47.912;7.356;2022-09-24T04:21:35;0.00;0.00;
61804;PMS7003;47725;47.912;7.356;2022-09-24T04:25:35;0.00;0.00;
61804;PMS7003;47725;47.912;7.356;2022-09-24T04:29:35;0.00;0.00;
61804;PMS7003;47725;47.912;7.356;2022-09-24T04:33:35;0.82;0.82;
61804;PMS7003;47725;47.912;7.356;2022-09-24T04:37:35;0.82;0.82;
61804;PMS7003;47725;47.912;7.356;2022-09-24T04:41:36;0.00;0.00;
61804;PMS7003;47725;47.912;7.356;2022-09-24T04:45:36;0.00;0.00;
61804;PMS7003;47725;47.912;7.356;2022-09-24T04:49:34;0.00;0.00;
61804;PMS7003;47725;47.912;7.356;2022-09-24T04:53:35;0.81;0.81;
61804;PMS7003;47725;47.912;7.356;2022-09-24T04:57:34;0.81;0.81;
61804;PMS7003;47725;47.912;7.356;2022-09-24T05:01:34;0.00;0.00;
61804;PMS7003;47725;47.912;7.356;2022-09-24T05:05:34;0.00;0.00;
61804;PMS7003;47725;47.912;7.356;2022-09-24T05:09:34;0.00;0.00;
61804;PMS7003;47725;47.912;7.356;2022-09-24T05:13:34;1.60;1.60;
61804;PMS7003;47725;47.912;7.356;2022-09-24T05:17:38;1.60;1.60;
61804;PMS7003;47725;47.912;7.356;2022-09-24T05:21:34;0.79;0.00;
61804;PMS7003;47725;47.912;7.356;2022-09-24T05:25:34;0.79;0.00;
61804;PMS7003;47725;47.912;7.356;2022-09-24T05:29:35;0.79;0.00;
61804;PMS7003;47725;47.912;7.356;2022-09-24T05:33:35;0.80;0.00;
61804;PMS7003;47725;47.912;7.356;2022-09-24T05:37:35;0.80;0.00;
61804;PMS7003;47725;47.912;7.356;2022-09-24T05:41:34;0.80;0.80;
61804;PMS7003;47725;47.912;7.356;2022-09-24T05:45:34;0.80;0.80;
61804;PMS7003;47725;47.912;7.356;2022-09-24T05:49:34;0.80;0.80;
61804;PMS7003;47725;47.912;7.356;2022-09-24T05:53:34;0.00;0.00;
61804;PMS7003;47725;47.912;7.356;2022-09-24T05:57:34;0.00;0.00;
61804;PMS7003;47725;47.912;7.356;2022-09-24T06:01:34;0.78;0.00;
61804;PMS7003;47725;47.912;7.356;2022-09-24T06:05:34;0.78;0.00;
61804;PMS7003;47725;47.912;7.356;2022-09-24T06:09:34;0.78;0.00;
61804;PMS7003;47725;47.912;7.356;2022-09-24T06:13:34;0.00;0.00;
61804;PMS7003;47725;47.912;7.356;2022-09-24T06:17:34;0.00;0.00;
61804;PMS7003;47725;47.912;7.356;2022-09-24T06:21:34;0.00;0.00;
61804;PMS7003;47725;47.912;7.356;2022-09-24T06:25:34;0.00;0.00;
61804;PMS7003;47725;47.912;7.356;2022-09-24T06:29:34;0.00;0.00;
61804;PMS7003;47725;47.912;7.356;2022-09-24T06:33:34;1.49;0.74;
61804;PMS7003;47725;47.912;7.356;2022-09-24T06:37:34;1.49;0.74;
61804;PMS7003;47725;47.912;7.356;2022-09-24T06:41:34;1.48;0.74;
61804;PMS7003;47725;47.912;7.356;2022-09-24T06:45:34;1.48;0.74;
61804;PMS7003;47725;47.912;7.356;2022-09-24T06:49:34;1.48;0.74;
61804;PMS7003;47725;47.912;7.356;2022-09-24T06:53:34;0.00;0.00;
61804;PMS7003;47725;47.912;7.356;2022-09-24T06:57:34;0.00;0.00;
61804;PMS7003;47725;47.912;7.356;2022-09-24T07:01:34;0.75;0.75;
61804;PMS7003;47725;47.912;7.356;2022-09-24T07:05:34;0.75;0.75;
61804;PMS7003;47725;47.912;7.356;2022-09-24T07:09:34;0.75;0.75;
61804;PMS7003;47725;47.912;7.356;2022-09-24T07:13:34;0.00;0.00;
61804;PMS7003;47725;47.912;7.356;2022-09-24T07:17:34;0.00;0.00;
61804;PMS7003;47725;47.912;7.356;2022-09-24T07:21:34;1.48;1.48;
61804;PMS7003;47725;47.912;7.356;2022-09-24T07:25:34;1.48;1.48;
61804;PMS7003;47725;47.912;7.356;2022-09-24T07:29:34;1.48;1.48;
61804;PMS7003;47725;47.912;7.356;2022-09-24T07:33:34;3.68;1.47;
61804;PMS7003;47725;47.912;7.356;2022-09-24T07:37:34;3.68;1.47;
61804;PMS7003;47725;47.912;7.356;2022-09-24T07:41:34;1.48;1.48;
61804;PMS7003;47725;47.912;7.356;2022-09-24T07:45:34;1.48;1.48;
61804;PMS7003;47725;47.912;7.356;2022-09-24T07:49:34;1.48;1.48;
61804;PMS7003;47725;47.912;7.356;2022-09-24T07:53:34;0.74;0.74;
61804;PMS7003;47725;47.912;7.356;2022-09-24T07:57:34;0.74;0.74;
61804;PMS7003;47725;47.912;7.356;2022-09-24T08:01:34;1.46;1.46;
61804;PMS7003;47725;47.912;7.356;2022-09-24T08:05:34;1.46;1.46;
61804;PMS7003;47725;47.912;7.356;2022-09-24T08:09:34;1.46;1.46;
61804;PMS7003;47725;47.912;7.356;2022-09-24T08:13:34;0.74;0.74;
61804;PMS7003;47725;47.912;7.356;2022-09-24T08:17:34;0.74;0.74;
61804;PMS7003;47725;47.912;7.356;2022-09-24T08:21:36;2.98;1.49;
61804;PMS7003;47725;47.912;7.356;2022-09-24T08:25:34;2.98;1.49;
61804;PMS7003;47725;47.912;7.356;2022-09-24T08:29:34;2.98;1.49;
61804;PMS7003;47725;47.912;7.356;2022-09-24T08:33:34;1.49;0.75;
61804;PMS7003;47725;47.912;7.356;2022-09-24T08:37:34;1.49;0.75;
61804;PMS7003;47725;47.912;7.356;2022-09-24T08:45:39;1.47;1.47;
61804;PMS7003;47725;47.912;7.356;2022-09-24T08:49:42;1.47;1.47;
61804;PMS7003;47725;47.912;7.356;2022-09-24T08:53:41;2.22;2.22;
61804;PMS7003;47725;47.912;7.356;2022-09-24T08:57:45;2.22;2.22;
61804;PMS7003;47725;47.912;7.356;2022-09-24T09:01:44;0.74;0.74;
61804;PMS7003;47725;47.912;7.356;2022-09-24T09:05:43;0.74;0.74;
61804;PMS7003;47725;47.912;7.356;2022-09-24T09:09:52;0.74;0.74;
61804;PMS7003;47725;47.912;7.356;2022-09-24T09:13:35;1.48;1.48;
61804;PMS7003;47725;47.912;7.356;2022-09-24T09:17:40;1.48;1.48;
61804;PMS7003;47725;47.912;7.356;2022-09-24T09:21:41;0.74;0.74;
61804;PMS7003;47725;47.912;7.356;2022-09-24T09:25:34;0.74;0.74;
61804;PMS7003;47725;47.912;7.356;2022-09-24T09:29:34;0.74;0.74;
61804;PMS7003;47725;47.912;7.356;2022-09-24T09:37:46;1.48;0.74;
61804;PMS7003;47725;47.912;7.356;2022-09-24T09:41:39;2.22;0.74;
61804;PMS7003;47725;47.912;7.356;2022-09-24T09:49:35;2.22;0.74;
61804;PMS7003;47725;47.912;7.356;2022-09-24T09:53:34;0.74;0.74;
61804;PMS7003;47725;47.912;7.356;2022-09-24T09:57:34;0.74;0.74;
61804;PMS7003;47725;47.912;7.356;2022-09-24T10:01:34;2.23;0.74;
61804;PMS7003;47725;47.912;7.356;2022-09-24T10:05:34;2.23;0.74;
61804;PMS7003;47725;47.912;7.356;2022-09-24T10:09:34;2.23;0.74;
61804;PMS7003;47725;47.912;7.356;2022-09-24T10:13:34;0.00;0.00;
61804;PMS7003;47725;47.912;7.356;2022-09-24T10:17:37;0.00;0.00;
61804;PMS7003;47725;47.912;7.356;2022-09-24T10:21:35;2.96;2.22;
61804;PMS7003;47725;47.912;7.356;2022-09-24T10:25:34;2.96;2.22;
61804;PMS7003;47725;47.912;7.356;2022-09-24T10:29:34;2.96;2.22;
61804;PMS7003;47725;47.912;7.356;2022-09-24T10:33:35;2.24;1.49;
61804;PMS7003;47725;47.912;7.356;2022-09-24T10:37:34;2.24;1.49;
61804;PMS7003;47725;47.912;7.356;2022-09-24T10:41:34;2.98;1.49;
61804;PMS7003;47725;47.912;7.356;2022-09-24T10:49:41;2.98;1.49;
61804;PMS7003;47725;47.912;7.356;2022-09-24T10:53:41;1.50;1.50;
61804;PMS7003;47725;47.912;7.356;2022-09-24T10:57:44;1.50;1.50;
61804;PMS7003;47725;47.912;7.356;2022-09-24T11:01:41;2.24;0.75;
61804;PMS7003;47725;47.912;7.356;2022-09-24T11:05:43;2.24;0.75;
61804;PMS7003;47725;47.912;7.356;2022-09-24T11:17:41;1.55;0.78;
61804;PMS7003;47725;47.912;7.356;2022-09-24T11:25:39;0.79;0.79;
61804;PMS7003;47725;47.912;7.356;2022-09-24T11:33:48;2.47;1.64;
61804;PMS7003;47725;47.912;7.356;2022-09-24T11:37:57;2.47;1.64;
61804;PMS7003;47725;47.912;7.356;2022-09-24T11:53:38;0.85;0.85;
61804;PMS7003;47725;47.912;7.356;2022-09-24T11:57:36;0.85;0.85;
61804;PMS7003;47725;47.912;7.356;2022-09-24T12:01:35;3.38;1.69;
61804;PMS7003;47725;47.912;7.356;2022-09-24T12:05:38;3.38;1.69;
61804;PMS7003;47725;47.912;7.356;2022-09-24T12:09:46;3.38;1.69;
61804;PMS7003;47725;47.912;7.356;2022-09-24T12:17:41;0.84;0.84;
61804;PMS7003;47725;47.912;7.356;2022-09-24T12:21:40;1.66;0.83;
61804;PMS7003;47725;47.912;7.356;2022-09-24T12:25:37;1.66;0.83;
61804;PMS7003;47725;47.912;7.356;2022-09-24T12:29:39;1.66;0.83;
61804;PMS7003;47725;47.912;7.356;2022-09-24T12:33:36;0.81;0.81;
61804;PMS7003;47725;47.912;7.356;2022-09-24T12:37:36;0.81;0.81;
61804;PMS7003;47725;47.912;7.356;2022-09-24T12:41:34;1.64;0.82;
61804;PMS7003;47725;47.912;7.356;2022-09-24T12:45:34;1.64;0.82;
61804;PMS7003;47725;47.912;7.356;2022-09-24T12:49:34;1.64;0.82;
61804;PMS7003;47725;47.912;7.356;2022-09-24T12:53:39;1.60;1.60;
61804;PMS7003;47725;47.912;7.356;2022-09-24T12:57:35;1.60;1.60;
61804;PMS7003;47725;47.912;7.356;2022-09-24T13:01:34;2.40;2.40;
61804;PMS7003;47725;47.912;7.356;2022-09-24T13:05:46;2.40;2.40;
61804;PMS7003;47725;47.912;7.356;2022-09-24T13:09:39;2.40;2.40;
61804;PMS7003;47725;47.912;7.356;2022-09-24T13:13:35;1.63;1.63;
61804;PMS7003;47725;47.912;7.356;2022-09-24T13:17:34;1.63;1.63;
61804;PMS7003;47725;47.912;7.356;2022-09-24T13:21:34;1.67;1.67;
61804;PMS7003;47725;47.912;7.356;2022-09-24T13:25:34;1.67;1.67;
61804;PMS7003;47725;47.912;7.356;2022-09-24T13:29:36;1.67;1.67;
61804;PMS7003;47725;47.912;7.356;2022-09-24T13:33:38;1.70;1.70;
61804;PMS7003;47725;47.912;7.356;2022-09-24T13:37:35;1.70;1.70;
61804;PMS7003;47725;47.912;7.356;2022-09-24T13:45:34;2.59;1.72;
61804;PMS7003;47725;47.912;7.356;2022-09-24T13:49:34;2.59;1.72;
61804;PMS7003;47725;47.912;7.356;2022-09-24T13:53:38;0.87;0.87;
61804;PMS7003;47725;47.912;7.356;2022-09-24T13:57:41;0.87;0.87;
61804;PMS7003;47725;47.912;7.356;2022-09-24T14:01:35;0.00;0.00;
61804;PMS7003;47725;47.912;7.356;2022-09-24T14:05:34;0.00;0.00;
61804;PMS7003;47725;47.912;7.356;2022-09-24T14:09:35;0.00;0.00;
61804;PMS7003;47725;47.912;7.356;2022-09-24T14:13:34;1.76;0.00;
61804;PMS7003;47725;47.912;7.356;2022-09-24T14:17:34;1.76;0.00;
61804;PMS7003;47725;47.912;7.356;2022-09-24T14:21:38;0.00;0.00;
61804;PMS7003;47725;47.912;7.356;2022-09-24T14:25:34;0.00;0.00;
61804;PMS7003;47725;47.912;7.356;2022-09-24T14:33:34;0.87;0.00;
61804;PMS7003;47725;47.912;7.356;2022-09-24T14:37:37;0.87;0.00;
61804;PMS7003;47725;47.912;7.356;2022-09-24T14:41:34;0.00;0.00;
61804;PMS7003;47725;47.912;7.356;2022-09-24T14:45:34;0.00;0.00;
61804;PMS7003;47725;47.912;7.356;2022-09-24T14:49:43;0.00;0.00;
61804;PMS7003;47725;47.912;7.356;2022-09-24T14:53:35;1.72;0.00;
61804;PMS7003;47725;47.912;7.356;2022-09-24T14:57:35;1.72;0.00;
61804;PMS7003;47725;47.912;7.356;2022-09-24T15:01:34;2.49;0.83;
61804;PMS7003;47725;47.912;7.356;2022-09-24T15:05:34;2.49;0.83;
61804;PMS7003;47725;47.912;7.356;2022-09-24T15:09:34;2.49;0.83;
61804;PMS7003;47725;47.912;7.356;2022-09-24T15:13:35;0.83;0.83;
61804;PMS7003;47725;47.912;7.356;2022-09-24T15:17:34;0.83;0.83;
61804;PMS7003;47725;47.912;7.356;2022-09-24T15:21:34;0.82;0.00;
61804;PMS7003;47725;47.912;7.356;2022-09-24T15:25:34;0.82;0.00;
61804;PMS7003;47725;47.912;7.356;2022-09-24T15:29:34;0.82;0.00;
61804;PMS7003;47725;47.912;7.356;2022-09-24T15:33:34;0.00;0.00;
61804;PMS7003;47725;47.912;7.356;2022-09-24T15:37:36;0.00;0.00;
61804;PMS7003;47725;47.912;7.356;2022-09-24T15:41:34;0.00;0.00;
61804;PMS7003;47725;47.912;7.356;2022-09-24T15:45:34;0.00;0.00;
61804;PMS7003;47725;47.912;7.356;2022-09-24T15:49:34;0.00;0.00;
61804;PMS7003;47725;47.912;7.356;2022-09-24T15:53:34;3.29;0.82;
61804;PMS7003;47725;47.912;7.356;2022-09-24T15:57:34;3.29;0.82;
61804;PMS7003;47725;47.912;7.356;2022-09-24T16:01:34;0.82;0.82;
61804;PMS7003;47725;47.912;7.356;2022-09-24T16:05:34;0.82;0.82;
61804;PMS7003;47725;47.912;7.356;2022-09-24T16:09:34;0.82;0.82;
61804;PMS7003;47725;47.912;7.356;2022-09-24T16:13:34;0.82;0.82;
61804;PMS7003;47725;47.912;7.356;2022-09-24T16:17:34;0.82;0.82;
61804;PMS7003;47725;47.912;7.356;2022-09-24T16:21:34;0.00;0.00;
61804;PMS7003;47725;47.912;7.356;2022-09-24T16:25:34;0.00;0.00;
61804;PMS7003;47725;47.912;7.356;2022-09-24T16:29:34;0.00;0.00;
61804;PMS7003;47725;47.912;7.356;2022-09-24T16:33:37;1.65;0.00;
61804;PMS7003;47725;47.912;7.356;2022-09-24T16:37:34;1.65;0.00;
61804;PMS7003;47725;47.912;7.356;2022-09-24T16:41:34;1.67;0.83;
61804;PMS7003;47725;47.912;7.356;2022-09-24T16:45:34;1.67;0.83;
61804;PMS7003;47725;47.912;7.356;2022-09-24T16:49:34;1.67;0.83;
61804;PMS7003;47725;47.912;7.356;2022-09-24T16:53:34;0.00;0.00;
61804;PMS7003;47725;47.912;7.356;2022-09-24T16:57:36;0.00;0.00;
61804;PMS7003;47725;47.912;7.356;2022-09-24T17:01:34;0.00;0.00;
61804;PMS7003;47725;47.912;7.356;2022-09-24T17:05:35;0.00;0.00;
61804;PMS7003;47725;47.912;7.356;2022-09-24T17:09:34;0.00;0.00;
61804;PMS7003;47725;47.912;7.356;2022-09-24T17:13:34;0.82;0.82;
61804;PMS7003;47725;47.912;7.356;2022-09-24T17:17:34;0.82;0.82;
61804;PMS7003;47725;47.912;7.356;2022-09-24T17:21:35;0.00;0.00;
61804;PMS7003;47725;47.912;7.356;2022-09-24T17:25:34;0.00;0.00;
61804;PMS7003;47725;47.912;7.356;2022-09-24T17:29:34;0.00;0.00;
61804;PMS7003;47725;47.912;7.356;2022-09-24T17:33:34;0.00;0.00;
61804;PMS7003;47725;47.912;7.356;2022-09-24T17:37:34;0.00;0.00;
61804;PMS7003;47725;47.912;7.356;2022-09-24T17:41:34;0.84;0.00;
61804;PMS7003;47725;47.912;7.356;2022-09-24T17:45:34;0.84;0.00;
61804;PMS7003;47725;47.912;7.356;2022-09-24T17:49:34;0.84;0.00;
61804;PMS7003;47725;47.912;7.356;2022-09-24T17:53:34;0.00;0.00;
61804;PMS7003;47725;47.912;7.356;2022-09-24T17:57:34;0.00;0.00;
61804;PMS7003;47725;47.912;7.356;2022-09-24T18:01:35;0.84;0.00;
61804;PMS7003;47725;47.912;7.356;2022-09-24T18:05:34;0.84;0.00;
61804;PMS7003;47725;47.912;7.356;2022-09-24T18:09:34;0.84;0.00;
61804;PMS7003;47725;47.912;7.356;2022-09-24T18:13:34;3.33;1.67;
61804;PMS7003;47725;47.912;7.356;2022-09-24T18:17:34;3.33;1.67;
61804;PMS7003;47725;47.912;7.356;2022-09-24T18:21:34;2.58;0.86;
61804;PMS7003;47725;47.912;7.356;2022-09-24T18:25:34;2.58;0.86;
61804;PMS7003;47725;47.912;7.356;2022-09-24T18:29:34;2.58;0.86;
61804;PMS7003;47725;47.912;7.356;2022-09-24T18:33:34;2.57;2.57;
61804;PMS7003;47725;47.912;7.356;2022-09-24T18:37:34;2.57;2.57;
61804;PMS7003;47725;47.912;7.356;2022-09-24T18:41:34;2.56;2.56;
61804;PMS7003;47725;47.912;7.356;2022-09-24T18:45:34;2.56;2.56;
61804;PMS7003;47725;47.912;7.356;2022-09-24T18:49:34;2.56;2.56;
61804;PMS7003;47725;47.912;7.356;2022-09-24T18:53:34;3.41;3.41;
61804;PMS7003;47725;47.912;7.356;2022-09-24T18:57:34;3.41;3.41;
61804;PMS7003;47725;47.912;7.356;2022-09-24T19:01:34;2.47;2.47;
61804;PMS7003;47725;47.912;7.356;2022-09-24T19:05:34;2.47;2.47;
61804;PMS7003;47725;47.912;7.356;2022-09-24T19:09:34;2.47;2.47;
61804;PMS7003;47725;47.912;7.356;2022-09-24T19:13:34;1.63;1.63;
61804;PMS7003;47725;47.912;7.356;2022-09-24T19:17:34;1.63;1.63;
61804;PMS7003;47725;47.912;7.356;2022-09-24T19:21:34;5.69;2.44;
61804;PMS7003;47725;47.912;7.356;2022-09-24T19:25:35;5.69;2.44;
61804;PMS7003;47725;47.912;7.356;2022-09-24T19:29:33;5.69;2.44;
61804;PMS7003;47725;47.912;7.356;2022-09-24T19:33:33;2.42;2.42;
61804;PMS7003;47725;47.912;7.356;2022-09-24T19:37:33;2.42;2.42;
61804;PMS7003;47725;47.912;7.356;2022-09-24T19:41:33;4.03;3.22;
61804;PMS7003;47725;47.912;7.356;2022-09-24T19:45:33;4.03;3.22;
61804;PMS7003;47725;47.912;7.356;2022-09-24T19:49:33;4.03;3.22;
61804;PMS7003;47725;47.912;7.356;2022-09-24T19:53:34;1.61;1.61;
61804;PMS7003;47725;47.912;7.356;2022-09-24T19:57:33;1.61;1.61;
61804;PMS7003;47725;47.912;7.356;2022-09-24T20:01:33;2.43;2.43;
61804;PMS7003;47725;47.912;7.356;2022-09-24T20:05:33;2.43;2.43;
61804;PMS7003;47725;47.912;7.356;2022-09-24T20:09:33;2.43;2.43;
61804;PMS7003;47725;47.912;7.356;2022-09-24T20:13:33;4.06;3.25;
61804;PMS7003;47725;47.912;7.356;2022-09-24T20:17:33;4.06;3.25;
61804;PMS7003;47725;47.912;7.356;2022-09-24T20:21:33;2.41;2.41;
61804;PMS7003;47725;47.912;7.356;2022-09-24T20:25:33;2.41;2.41;
61804;PMS7003;47725;47.912;7.356;2022-09-24T20:29:33;2.41;2.41;
61804;PMS7003;47725;47.912;7.356;2022-09-24T20:33:33;4.05;3.24;
61804;PMS7003;47725;47.912;7.356;2022-09-24T20:37:33;4.05;3.24;
61804;PMS7003;47725;47.912;7.356;2022-09-24T20:41:34;5.61;5.61;
61804;PMS7003;47725;47.912;7.356;2022-09-24T20:45:33;5.61;5.61;
61804;PMS7003;47725;47.912;7.356;2022-09-24T20:49:33;5.61;5.61;
61804;PMS7003;47725;47.912;7.356;2022-09-24T20:53:33;15.10;11.92;
61804;PMS7003;47725;47.912;7.356;2022-09-24T20:57:33;15.10;11.92;
61804;PMS7003;47725;47.912;7.356;2022-09-24T21:01:33;4.77;4.77;
61804;PMS7003;47725;47.912;7.356;2022-09-24T21:05:33;4.77;4.77;
61804;PMS7003;47725;47.912;7.356;2022-09-24T21:09:33;4.77;4.77;
61804;PMS7003;47725;47.912;7.356;2022-09-24T21:13:34;2.39;2.39;
61804;PMS7003;47725;47.912;7.356;2022-09-24T21:17:33;2.39;2.39;
61804;PMS7003;47725;47.912;7.356;2022-09-24T21:21:34;1.60;1.60;
61804;PMS7003;47725;47.912;7.356;2022-09-24T21:25:33;1.60;1.60;
61804;PMS7003;47725;47.912;7.356;2022-09-24T21:29:33;1.60;1.60;
61804;PMS7003;47725;47.912;7.356;2022-09-24T21:33:33;1.61;1.61;
61804;PMS7003;47725;47.912;7.356;2022-09-24T21:37:33;1.61;1.61;
61804;PMS7003;47725;47.912;7.356;2022-09-24T21:41:34;2.42;2.42;
61804;PMS7003;47725;47.912;7.356;2022-09-24T21:45:33;2.42;2.42;
61804;PMS7003;47725;47.912;7.356;2022-09-24T21:49:33;2.42;2.42;
61804;PMS7003;47725;47.912;7.356;2022-09-24T21:53:34;2.43;2.43;
61804;PMS7003;47725;47.912;7.356;2022-09-24T21:57:33;2.43;2.43;
61804;PMS7003;47725;47.912;7.356;2022-09-24T22:01:33;3.24;3.24;
61804;PMS7003;47725;47.912;7.356;2022-09-24T22:05:34;3.24;3.24;
61804;PMS7003;47725;47.912;7.356;2022-09-24T22:09:33;3.24;3.24;
61804;PMS7003;47725;47.912;7.356;2022-09-24T22:13:33;3.24;2.43;
61804;PMS7003;47725;47.912;7.356;2022-09-24T22:17:33;3.24;2.43;
61804;PMS7003;47725;47.912;7.356;2022-09-24T22:21:33;3.24;3.24;
61804;PMS7003;47725;47.912;7.356;2022-09-24T22:25:33;3.24;3.24;
61804;PMS7003;47725;47.912;7.356;2022-09-24T22:29:33;3.24;3.24;
61804;PMS7003;47725;47.912;7.356;2022-09-24T22:33:33;2.43;2.43;
61804;PMS7003;47725;47.912;7.356;2022-09-24T22:37:33;2.43;2.43;
61804;PMS7003;47725;47.912;7.356;2022-09-24T22:41:35;3.23;3.23;
61804;PMS7003;47725;47.912;7.356;2022-09-24T22:45:33;3.23;3.23;
61804;PMS7003;47725;47.912;7.356;2022-09-24T22:49:33;3.23;3.23;
61804;PMS7003;47725;47.912;7.356;2022-09-24T22:53:34;2.40;2.40;
61804;PMS7003;47725;47.912;7.356;2022-09-24T22:57:33;2.40;2.40;
61804;PMS7003;47725;47.912;7.356;2022-09-24T23:01:35;2.40;2.40;
61804;PMS7003;47725;47.912;7.356;2022-09-24T23:05:33;2.40;2.40;
61804;PMS7003;47725;47.912;7.356;2022-09-24T23:09:33;2.40;2.40;
61804;PMS7003;47725;47.912;7.356;2022-09-24T23:13:33;3.99;2.39;
61804;PMS7003;47725;47.912;7.356;2022-09-24T23:17:34;3.99;2.39;
61804;PMS7003;47725;47.912;7.356;2022-09-24T23:21:33;2.40;2.40;
61804;PMS7003;47725;47.912;7.356;2022-09-24T23:25:33;2.40;2.40;
61804;PMS7003;47725;47.912;7.356;2022-09-24T23:29:33;2.40;2.40;
61804;PMS7003;47725;47.912;7.356;2022-09-24T23:33:34;1.59;1.59;
61804;PMS7003;47725;47.912;7.356;2022-09-24T23:37:33;1.59;1.59;
61804;PMS7003;47725;47.912;7.356;2022-09-24T23:41:33;3.97;3.97;
61804;PMS7003;47725;47.912;7.356;2022-09-24T23:45:33;3.97;3.97;
61804;PMS7003;47725;47.912;7.356;2022-09-24T23:49:33;3.97;3.97;
61804;PMS7003;47725;47.912;7.356;2022-09-24T23:53:33;2.38;2.38;
61804;PMS7003;47725;47.912;7.356;2022-09-24T23:57:33;2.38;2.38;
